Pagrindinis puslapis
METAR-TAF:

METAR-TAF

Oro uostai :

Nanas, Tailandas

platuma: 18-46N, ilguma: 100-46E, Aukštis: 200 m

Dabartinis oras

Ataskaita buvo paskelbta 41 minutes, ne 06:00 UTC
Vėjas 4 kt nuo kintamojo kryptimis
Temperatūra 35°C
Drėgmė 53%
Slėgis 1009 hPa
Matomumas 10 km arba daugiau
Mažai debesys ne aukštis 3000 ft

METAR: VTCN 300600Z VRB04KT 9999 FEW030 35/24 Q1009 NOSIG

Laikas: 13:41 (06:41 UTC)

Prognozė

Ataskaita buvo paskelbta 1 valandą ir 41 minutes, ne 05:00 UTC
Prognozė galioja nuo 30 metu 06 UTC su 31 metu 06 UTC
Vėjas 5 kt iš Pietų
Matomumas 10 km arba daugiau
Išsisklaidę debesys ne aukštis 2500 ft
Laikinai
nuo 30 metu 07 UTC su 30 metu 14 UTC
Vėjas 15 kt iš Vakarų/Pietvakarių su gūsio iki 30 kt
Matomumas: 4000 m
Mažai debesys ne aukštis 1800 ft, Liūtiniai kamuoliniai debesys.
Su prošvaistėmis ne aukštis 2500 ft
perkūnija, lietus

TAF: VTCN 300500Z 3006/3106 18005KT 9999 SCT025 TEMPO 3007/3014 24015G30KT 4000 TSRA FEW018CB BKN025

Orai ataskaitas ir orų prognozės (METAR, TAF).

turimą stotys yra geltonos ir raudonos taškus žemėlapyje.

Perkelti pele per norėdami pamatyti stoties vardą.

Tada spustelėkite, norėdami matyti oro stebėjimo ir prognozės.

Norėdami pakeisti žemėlapį: spustelėkite ant žalios mygtukų su juodo kryžiaus žemyn,; žalią mygtuką su brūkšneliu, jei norite nutolinti; arba žalių rodyklių gretimoms žemėlapius.


METAR-TAF: